Time;durP1;ratioP1;P1;durP2;ratioP2;P2;SDS_P1;SDS_P2;PMS_P1;PMS_P2;Temp;Humidity;BMP_temperature;BMP_pressure;BME280_temperature;BME280_humidity;BME280_pressure;Samples;Min_cycle;Max_cycle;Signal;HPM_P1;HPM_P2
2022/05/25 00:01:37;;;;;;;1.70;1.60;;;12.50;99.90;13.00;101081.00;;;;5034529;28;20630;-64
2022/05/25 00:04:05;;;;;;;0.50;0.50;;;12.70;99.90;12.40;101082.00;;;;5034569;28;20235;-64
2022/05/25 00:06:32;;;;;;;0.40;0.40;;;12.70;99.90;12.30;101077.00;;;;5034465;28;20186;-64
2022/05/25 00:08:58;;;;;;;0.40;0.40;;;12.60;99.90;12.40;101089.00;;;;5034513;28;20544;-64
2022/05/25 00:11:24;;;;;;;0.40;0.40;;;12.50;99.90;12.10;101078.00;;;;5035797;28;20192;-63
2022/05/25 00:13:50;;;;;;;0.40;0.40;;;12.50;99.90;12.30;101088.00;;;;5035682;28;20202;-64
2022/05/25 00:16:17;;;;;;;0.40;0.40;;;12.50;99.90;12.40;101073.00;;;;5034071;28;20187;-64
2022/05/25 00:21:29;;;;;;;0.30;0.30;;;12.40;99.90;11.90;101086.00;;;;5035586;28;20209;-64
2022/05/25 00:23:57;;;;;;;0.30;0.30;;;12.20;99.90;11.70;101090.00;;;;5035481;28;20262;-64
2022/05/25 00:26:23;;;;;;;0.40;0.40;;;12.10;99.90;11.60;101091.00;;;;5035078;28;20409;-63
2022/05/25 00:28:49;;;;;;;0.40;0.40;;;12.00;99.90;11.50;101101.00;;;;5034967;28;20188;-64
2022/05/25 00:31:14;;;;;;;0.40;0.40;;;11.90;99.90;11.50;101095.00;;;;5035098;28;20220;-64
2022/05/25 00:33:41;;;;;;;0.30;0.30;;;11.90;99.90;11.70;101086.00;;;;5034006;28;20533;-63
2022/05/25 00:36:07;;;;;;;0.40;0.40;;;11.90;99.90;11.70;101110.00;;;;5033840;28;20627;-64
2022/05/25 00:38:33;;;;;;;0.30;0.30;;;11.80;99.90;11.40;101102.00;;;;5035291;28;20237;-64
2022/05/25 00:40:59;;;;;;;0.40;0.40;;;11.90;99.90;11.50;101070.00;;;;5035028;28;20657;-64
2022/05/25 00:43:24;;;;;;;0.40;0.40;;;11.80;99.90;11.70;101103.00;;;;5035216;28;20642;-65
2022/05/25 00:46:00;;;;;;;0.40;0.40;;;11.90;99.90;11.30;101109.00;;;;5033477;28;20187;-64
2022/05/25 00:48:37;;;;;;;0.40;0.40;;;11.70;99.90;11.10;101116.00;;;;5033770;28;20182;-64
2022/05/25 00:51:12;;;;;;;0.40;0.40;;;11.60;99.90;11.10;101120.00;;;;5034667;28;20668;-64
2022/05/25 00:54:07;;;;;;;0.30;0.30;;;11.50;99.90;11.30;101079.00;;;;5033653;28;20178;-64
2022/05/25 00:56:34;;;;;;;0.30;0.30;;;11.50;99.90;11.20;101120.00;;;;5033756;28;20654;-64
2022/05/25 00:59:26;;;;;;;0.40;0.40;;;11.60;99.90;11.40;101113.00;;;;5033612;28;20181;-64
2022/05/25 01:01:53;;;;;;;0.40;0.40;;;11.70;99.90;11.20;101119.00;;;;5031648;28;20211;-64
2022/05/25 01:04:18;;;;;;;0.30;0.30;;;11.60;99.90;11.30;101094.00;;;;5033576;28;20189;-65
2022/05/25 01:07:27;;;;;;;0.30;0.30;;;11.60;99.90;11.70;101119.00;;;;5034589;28;20662;-64
2022/05/25 01:10:05;;;;;;;0.40;0.40;;;11.80;99.90;11.60;101116.00;;;;5034319;28;20634;-64
2022/05/25 01:12:43;;;;;;;0.40;0.40;;;11.80;99.90;11.60;101117.00;;;;5034382;28;20233;-64
2022/05/25 01:15:34;;;;;;;0.40;0.40;;;11.80;99.90;11.40;101110.00;;;;5034335;28;20180;-64
2022/05/25 01:18:31;;;;;;;0.40;0.40;;;11.70;99.90;11.30;101125.00;;;;5034534;28;20173;-63
2022/05/25 01:21:23;;;;;;;0.40;0.40;;;11.70;99.90;11.10;101106.00;;;;5032959;28;20319;-64
2022/05/25 01:23:52;;;;;;;0.40;0.40;;;11.50;99.90;11.20;101127.00;;;;5033732;28;20194;-64
2022/05/25 01:26:28;;;;;;;0.40;0.40;;;11.50;99.90;11.10;101119.00;;;;5034097;28;20197;-64
2022/05/25 01:29:22;;;;;;;0.40;0.40;;;11.40;99.90;11.10;101127.00;;;;5033626;28;20580;-64
2022/05/25 01:32:02;;;;;;;0.63;0.63;;;11.40;99.90;10.90;101085.00;;;;5033747;28;20717;-63
2022/05/25 01:35:00;;;;;;;0.40;0.40;;;11.40;99.90;10.80;101134.00;;;;5034422;28;20182;-64
2022/05/25 01:38:00;;;;;;;0.40;0.40;;;11.30;99.90;10.50;101131.00;;;;5016453;28;20181;-63
2022/05/25 01:40:50;;;;;;;0.40;0.40;;;11.20;99.90;10.60;101128.00;;;;5033770;28;20178;-64
2022/05/25 01:43:38;;;;;;;0.40;0.40;;;11.10;99.90;10.50;101126.00;;;;5032757;28;20175;-63
2022/05/25 01:46:26;;;;;;;0.40;0.40;;;11.00;99.90;10.20;101130.00;;;;5032674;28;20537;-64
2022/05/25 01:48:56;;;;;;;1.03;1.03;;;11.00;99.90;10.50;101086.00;;;;5032467;28;20180;-63
2022/05/25 01:51:39;;;;;;;0.50;0.50;;;11.00;99.90;10.60;101131.00;;;;5032601;28;20674;-63
2022/05/25 01:54:09;;;;;;;0.63;0.63;;;11.00;99.90;10.40;101132.00;;;;5016066;28;20184;-64
2022/05/25 01:56:39;;;;;;;0.40;0.40;;;11.00;99.90;10.40;101126.00;;;;5032628;28;20171;-64
2022/05/25 01:59:09;;;;;;;0.40;0.40;;;10.90;99.90;10.40;101142.00;;;;5015885;28;20522;-64
2022/05/25 02:04:19;;;;;;;0.50;0.50;;;11.00;99.90;10.50;101117.00;;;;5032411;28;20268;-64
2022/05/25 02:04:39;;;;;;;0.50;0.50;;;10.90;99.90;10.50;101140.00;;;;5032490;28;20196;-64
2022/05/25 02:07:33;;;;;;;0.40;0.40;;;10.90;99.90;10.40;101138.00;;;;5033276;28;20178;-64
2022/05/25 02:10:20;;;;;;;0.43;0.43;;;10.90;99.90;10.50;101144.00;;;;5033544;28;20191;-64
2022/05/25 02:13:13;;;;;;;0.40;0.40;;;10.90;99.90;10.60;101150.00;;;;5033210;28;20664;-64
2022/05/25 02:15:45;;;;;;;0.40;0.40;;;11.00;99.90;10.50;101138.00;;;;5034052;28;20162;-64
2022/05/25 02:18:19;;;;;;;0.40;0.40;;;10.90;99.90;10.60;101144.00;;;;5033136;28;20638;-64
2022/05/25 02:21:07;;;;;;;0.50;0.50;;;10.90;99.90;10.80;101150.00;;;;5033685;28;20181;-64
2022/05/25 02:23:53;;;;;;;0.50;0.50;;;11.00;99.90;11.00;101150.00;;;;5032145;28;20182;-64
2022/05/25 02:26:28;;;;;;;2.37;1.27;;;11.20;99.90;11.10;101110.00;;;;5032055;28;20224;-64
2022/05/25 02:29:26;;;;;;;0.50;0.50;;;11.20;99.90;11.30;101146.00;;;;5032181;28;20181;-64
2022/05/25 02:32:08;;;;;;;0.50;0.50;;;11.30;99.90;11.40;101122.00;;;;5024825;28;20684;-64
2022/05/25 02:34:37;;;;;;;0.50;0.50;;;11.40;99.90;11.20;101147.00;;;;5032048;28;20258;-64
2022/05/25 02:37:04;;;;;;;0.40;0.40;;;11.30;99.90;10.60;101157.00;;;;5031872;28;20666;-64
2022/05/25 02:39:31;;;;;;;0.40;0.40;;;11.20;99.90;11.00;101156.00;;;;5032005;28;20178;-64
2022/05/25 02:41:57;;;;;;;0.50;0.50;;;11.20;99.90;11.30;101162.00;;;;5033071;28;20188;-64
2022/05/25 02:44:24;;;;;;;0.50;0.50;;;11.30;99.90;10.90;101164.00;;;;5033185;28;20188;-64
2022/05/25 02:46:53;;;;;;;0.40;0.40;;;11.40;99.90;10.80;101163.00;;;;5031922;28;20175;-64
2022/05/25 02:49:19;;;;;;;0.50;0.50;;;11.20;99.90;10.80;101154.00;;;;5033108;28;20568;-64
2022/05/25 02:51:45;;;;;;;0.40;0.40;;;11.20;99.90;10.50;101162.00;;;;5033553;28;20208;-64
2022/05/25 02:54:11;;;;;;;0.40;0.40;;;11.10;99.90;10.70;101161.00;;;;5032754;28;20178;-64
2022/05/25 02:56:37;;;;;;;1.03;1.03;;;11.10;99.90;10.80;101162.00;;;;5032101;28;20671;-64
2022/05/25 02:59:03;;;;;;;0.40;0.40;;;11.10;99.90;10.50;101143.00;;;;5015305;28;20566;-64
2022/05/25 03:01:29;;;;;;;0.40;0.40;;;11.10;99.90;10.70;101174.00;;;;5033318;28;20198;-64
2022/05/25 03:03:55;;;;;;;1.33;1.13;;;11.00;99.90;11.10;101173.00;;;;5033057;28;20208;-64
2022/05/25 03:06:21;;;;;;;0.50;0.50;;;11.20;99.90;10.70;101169.00;;;;5032887;28;20242;-64
2022/05/25 03:08:47;;;;;;;0.40;0.40;;;11.10;99.90;10.70;101174.00;;;;5032829;28;20195;-64
2022/05/25 03:11:13;;;;;;;0.43;0.43;;;11.00;99.90;10.60;101144.00;;;;5032800;28;20201;-64
2022/05/25 03:13:41;;;;;;;0.50;0.50;;;11.00;99.90;10.50;101176.00;;;;5031997;28;20618;-63
2022/05/25 03:16:08;;;;;;;0.50;0.50;;;10.90;99.90;10.50;101192.00;;;;5032822;28;20183;-64
2022/05/25 03:18:34;;;;;;;0.53;0.53;;;10.90;99.90;10.30;101199.00;;;;5034406;28;20534;-64
2022/05/25 03:21:00;;;;;;;0.40;0.40;;;10.80;99.90;10.20;101184.00;;;;5035755;28;20181;-65
2022/05/25 03:23:26;;;;;;;0.40;0.40;;;10.70;99.90;10.30;101195.00;;;;5036163;28;20268;-65
2022/05/25 03:25:52;;;;;;;0.43;0.43;;;10.70;99.90;10.20;101202.00;;;;5036856;28;20178;-64
2022/05/25 03:28:17;;;;;;;0.40;0.40;;;10.70;99.90;10.20;101198.00;;;;5036368;28;20177;-64
2022/05/25 03:30:47;;;;;;;0.70;0.70;;;10.60;99.90;10.10;101201.00;;;;5036165;28;20178;-65
2022/05/25 03:33:13;;;;;;;0.47;0.47;;;10.60;99.90;10.30;101200.00;;;;5035208;28;20209;-64
2022/05/25 03:35:40;;;;;;;0.40;0.40;;;10.60;99.90;10.40;101193.00;;;;5035412;28;20603;-64
2022/05/25 03:38:06;;;;;;;0.50;0.50;;;10.60;99.90;10.50;101199.00;;;;5035927;28;20608;-64
2022/05/25 03:40:33;;;;;;;0.40;0.40;;;10.70;99.90;10.10;101162.00;;;;5035202;28;20179;-64
2022/05/25 03:42:59;;;;;;;0.40;0.40;;;10.60;99.90;10.10;101199.00;;;;5034907;28;20596;-64
2022/05/25 03:45:25;;;;;;;0.40;0.40;;;10.50;99.90;10.10;101200.00;;;;5035933;28;20196;-64
2022/05/25 03:47:51;;;;;;;0.70;0.70;;;10.50;99.90;10.20;101203.00;;;;5036061;28;20180;-64
2022/05/25 03:50:20;;;;;;;0.50;0.50;;;10.60;99.90;10.20;101206.00;;;;5035150;28;20179;-64
2022/05/25 03:52:47;;;;;;;0.50;0.50;;;10.50;99.90;10.20;101216.00;;;;5034440;28;20254;-64
2022/05/25 03:55:12;;;;;;;0.50;0.50;;;10.60;99.90;10.50;101213.00;;;;5036389;28;20171;-64
2022/05/25 03:57:38;;;;;;;0.50;0.50;;;10.60;99.90;10.40;101198.00;;;;5036017;28;20188;-64
2022/05/25 04:00:06;;;;;;;4.57;2.73;;;10.60;99.90;10.30;101215.00;;;;5035939;28;20185;-64
2022/05/25 04:02:32;;;;;;;0.40;0.40;;;10.70;99.90;10.00;101217.00;;;;5034382;28;20200;-64
2022/05/25 04:05:07;;;;;;;0.50;0.50;;;10.50;99.90;10.10;101185.00;;;;5036011;28;20508;-64
2022/05/25 04:07:51;;;;;;;0.50;0.50;;;10.50;99.90;10.00;101213.00;;;;5034357;28;20182;-64
2022/05/25 04:10:19;;;;;;;0.40;0.40;;;10.50;99.90;10.00;101224.00;;;;5035501;28;20180;-64
2022/05/25 04:12:46;;;;;;;0.50;0.50;;;10.50;99.90;10.20;101217.00;;;;5034561;28;20247;-64
2022/05/25 04:15:21;;;;;;;0.40;0.40;;;10.50;99.90;9.90;101173.00;;;;5034467;28;20189;-64
2022/05/25 04:17:47;;;;;;;0.40;0.40;;;10.50;99.90;9.80;101216.00;;;;5034467;28;20649;-64
2022/05/25 04:20:15;;;;;;;0.40;0.40;;;10.40;99.90;10.10;101218.00;;;;5034084;28;20649;-64
2022/05/25 04:22:42;;;;;;;0.50;0.50;;;10.50;99.90;10.30;101214.00;;;;5035212;28;20200;-64
2022/05/25 04:25:11;;;;;;;0.40;0.40;;;10.60;99.90;10.10;101211.00;;;;5035239;28;20267;-64
2022/05/25 04:27:43;;;;;;;0.40;0.40;;;10.60;99.90;9.90;101211.00;;;;5035612;28;20174;-64
2022/05/25 04:30:13;;;;;;;0.43;0.43;;;10.60;99.90;10.20;101210.00;;;;5035048;28;20166;-64
2022/05/25 04:32:39;;;;;;;0.40;0.40;;;10.60;99.90;10.20;101210.00;;;;5034008;28;20213;-64
2022/05/25 04:35:06;;;;;;;0.40;0.40;;;10.70;99.90;10.10;101214.00;;;;5035159;28;20641;-64
2022/05/25 04:37:52;;;;;;;0.30;0.30;;;10.70;99.90;10.10;101211.00;;;;5034002;28;20630;-64
2022/05/25 04:40:37;;;;;;;0.33;0.33;;;10.80;99.90;10.40;101221.00;;;;5034052;28;20176;-64
2022/05/25 04:43:16;;;;;;;0.83;0.83;;;10.90;99.90;10.70;101222.00;;;;5035223;28;20649;-64
2022/05/25 04:45:44;;;;;;;0.30;0.30;;;11.10;99.90;10.50;101223.00;;;;5035021;28;20266;-64
2022/05/25 04:48:13;;;;;;;0.27;0.27;;;11.10;99.90;10.70;101219.00;;;;5034934;28;20178;-64
2022/05/25 04:50:41;;;;;;;0.20;0.20;;;11.20;99.90;10.90;101231.00;;;;5033497;28;20657;-64
2022/05/25 04:53:13;;;;;;;0.20;0.20;;;11.30;99.90;11.20;101222.00;;;;5034929;28;20746;-64
2022/05/25 04:58:34;;;;;;;0.20;0.20;;;11.60;99.90;11.30;101182.00;;;;5034040;28;20204;-64
2022/05/25 05:01:02;;;;;;;0.30;0.30;;;11.70;99.90;13.00;101229.00;;;;5033596;28;20268;-64
2022/05/25 05:03:30;;;;;;;0.20;0.20;;;12.80;99.90;13.00;101204.00;;;;5034677;28;20185;-64
2022/05/25 05:05:57;;;;;;;0.20;0.20;;;13.30;99.90;13.40;101215.00;;;;5034406;28;20225;-64
2022/05/25 05:08:24;;;;;;;0.20;0.20;;;13.80;99.90;12.80;101190.00;;;;5033330;28;20657;-64
2022/05/25 05:10:51;;;;;;;0.20;0.20;;;13.60;99.90;15.10;101199.00;;;;5033128;28;20186;-64
2022/05/25 05:13:17;;;;;;;0.30;0.30;;;14.60;99.90;14.20;101194.00;;;;5033246;28;20298;-64
2022/05/25 05:15:46;;;;;;;0.30;0.30;;;14.60;99.90;13.10;101191.00;;;;5034368;28;20532;-64
2022/05/25 05:18:13;;;;;;;0.10;0.10;;;14.30;99.90;14.10;101184.00;;;;5033510;28;20172;-64
2022/05/25 05:20:39;;;;;;;0.33;0.33;;;14.50;99.90;14.40;101180.00;;;;5033978;28;20179;-64
2022/05/25 05:23:05;;;;;;;0.10;0.10;;;14.90;99.90;13.90;101151.00;;;;5034557;28;20680;-64
2022/05/25 05:25:33;;;;;;;0.10;0.10;;;14.60;99.90;13.60;101186.00;;;;5034205;28;20179;-64
2022/05/25 05:28:15;;;;;;;0.10;0.10;;;14.10;99.90;15.90;101160.00;;;;5033290;28;20187;-64
2022/05/25 05:30:54;;;;;;;0.10;0.10;;;15.40;99.90;16.50;101173.00;;;;5032957;28;20181;-64
2022/05/25 05:33:22;;;;;;;0.10;0.10;;;16.10;99.90;15.80;101170.00;;;;5034023;28;20198;-65
2022/05/25 05:36:15;;;;;;;0.10;0.10;;;16.40;99.90;17.00;101170.00;;;;5033684;28;20583;-65
2022/05/25 05:38:58;;;;;;;0.10;0.10;;;16.70;99.90;17.60;101186.00;;;;5033070;28;20289;-65
2022/05/25 05:41:26;;;;;;;0.45;0.43;;;17.70;99.90;14.90;101159.00;;;;5015662;28;20539;-64
2022/05/25 05:43:52;;;;;;;0.57;0.57;;;16.20;99.90;18.30;101193.00;;;;5032833;28;20310;-65
2022/05/25 05:46:18;;;;;;;0.25;0.25;;;17.70;99.90;18.80;101231.00;;;;5033695;28;20257;-65
2022/05/25 05:48:45;;;;;;;0.10;0.10;;;18.80;99.90;16.00;101179.00;;;;5033614;28;20585;-64
2022/05/25 05:51:11;;;;;;;0.30;0.30;;;17.20;99.90;15.70;101176.00;;;;5033684;28;20704;-65
2022/05/25 05:53:40;;;;;;;0.40;0.40;;;16.70;99.90;15.30;101182.00;;;;5032594;28;20186;-64
2022/05/25 05:56:07;;;;;;;0.10;0.10;;;16.00;99.90;16.90;101187.00;;;;5032516;28;20638;-64
2022/05/25 05:58:33;;;;;;;0.10;0.10;;;17.10;99.90;17.10;101157.00;;;;5032652;28;20182;-64
2022/05/25 06:00:59;;;;;;;0.10;0.10;;;17.30;99.90;18.20;101233.00;;;;5033690;28;20190;-64
2022/05/25 06:03:25;;;;;;;0.20;0.20;;;18.40;99.90;16.90;101201.00;;;;5032350;28;20182;-64
2022/05/25 06:05:51;;;;;;;0.20;0.20;;;17.70;99.90;18.20;101217.00;;;;5033673;28;20541;-65
2022/05/25 06:08:21;;;;;;;0.10;0.10;;;18.20;99.90;20.50;101267.00;;;;5033472;28;20248;-64
2022/05/25 06:10:47;;;;;;;0.10;0.10;;;19.50;99.90;21.50;101298.00;;;;5032531;28;20163;-62
2022/05/25 06:13:13;;;;;;;3.63;1.08;;;20.70;99.90;18.40;101279.00;;;;5033211;28;20297;-65
2022/05/25 06:21:17;;;;;;;0.20;0.20;;;19.00;99.90;19.50;101291.00;;;;5033220;28;20288;-64
2022/05/25 06:23:43;;;;;;;0.93;0.93;;;19.40;99.90;19.50;101329.00;;;;5033332;28;20216;-64
2022/05/25 06:26:09;;;;;;;1.85;0.43;;;20.00;99.90;15.00;101224.00;;;;5033532;28;20588;-64
2022/05/25 06:28:35;;;;;;;0.10;0.10;;;17.00;99.90;15.90;101205.00;;;;5033304;28;20260;-64
2022/05/25 06:31:00;;;;;;;0.73;0.73;;;16.50;99.90;17.80;101211.00;;;;5032938;28;20185;-65
2022/05/25 06:33:27;;;;;;;0.10;0.10;;;17.50;99.90;18.00;101256.00;;;;5032834;28;20190;-65
2022/05/25 06:35:53;;;;;;;0.40;0.40;;;18.30;99.90;17.40;101219.00;;;;5033358;28;20183;-65
2022/05/25 06:38:19;;;;;;;0.28;0.28;;;17.80;99.90;16.80;101235.00;;;;5032917;28;20170;-65
2022/05/25 06:40:44;;;;;;;0.10;0.10;;;17.30;99.90;20.20;101288.00;;;;5033573;28;20185;-64
2022/05/25 06:43:10;;;;;;;0.10;0.10;;;19.10;99.90;17.80;101255.00;;;;5033406;28;20175;-65
2022/05/25 06:45:38;;;;;;;0.10;0.10;;;18.40;99.90;20.30;101318.00;;;;5033646;28;20694;-64
2022/05/25 06:48:06;;;;;;;0.10;0.10;;;19.70;99.90;19.10;101312.00;;;;5033074;28;20519;-64
2022/05/25 06:50:34;;;;;;;0.70;0.57;;;19.60;99.90;20.20;101321.00;;;;5031948;28;20225;-64
2022/05/25 06:53:00;;;;;;;0.40;0.40;;;20.10;99.90;19.10;101323.00;;;;5033614;28;20187;-64
2022/05/25 06:55:25;;;;;;;0.50;0.20;;;19.80;99.90;21.20;101344.00;;;;5036024;28;20193;-65
2022/05/25 06:57:54;;;;;;;0.63;0.40;;;20.50;99.90;19.10;101330.00;;;;5035799;28;20193;-66
2022/05/25 07:00:20;;;;;;;0.10;0.10;;;19.90;99.90;18.60;101306.00;;;;5035854;28;20210;-65
2022/05/25 07:02:46;;;;;;;1.05;0.70;;;19.10;99.90;18.00;101308.00;;;;5035323;28;20226;-65
2022/05/25 07:05:11;;;;;;;0.80;0.75;;;18.90;99.90;15.70;101236.00;;;;5036999;28;20210;-64
2022/05/25 07:07:38;;;;;;;2.85;1.17;;;17.40;99.90;17.10;101268.00;;;;5036605;28;20246;-65
2022/05/25 07:10:05;;;;;;;0.25;0.25;;;17.50;99.90;18.20;101272.00;;;;5037004;28;20179;-65
2022/05/25 07:12:32;;;;;;;0.10;0.10;;;18.40;99.90;19.50;101315.00;;;;5036740;28;20207;-65
2022/05/25 07:14:58;;;;;;;0.13;0.13;;;19.00;99.90;20.20;101337.00;;;;5036769;28;20186;-65
2022/05/25 07:17:23;;;;;;;0.25;0.25;;;20.00;99.90;18.50;101327.00;;;;5035895;28;20177;-65
2022/05/25 07:19:49;;;;;;;0.10;0.10;;;19.70;99.90;16.60;101287.00;;;;5036747;28;20182;-64
2022/05/25 07:22:15;;;;;;;0.40;0.37;;;17.60;99.90;15.00;101254.00;;;;5035564;28;20185;-64
2022/05/25 07:24:41;;;;;;;0.10;0.10;;;16.30;99.90;16.40;101275.00;;;;5036465;28;20636;-65
2022/05/25 07:27:07;;;;;;;2.20;1.03;;;16.70;99.90;15.20;101275.00;;;;5036698;28;20173;-64
2022/05/25 07:29:33;;;;;;;0.37;0.37;;;16.20;99.90;14.60;101283.00;;;;5036034;28;20184;-64
2022/05/25 07:32:04;;;;;;;0.10;0.10;;;15.80;99.90;15.50;101288.00;;;;5036148;28;20678;-64
2022/05/25 07:35:03;;;;;;;0.40;0.40;;;15.80;99.90;15.60;101294.00;;;;5035270;28;20169;-65
2022/05/25 07:37:34;;;;;;;0.50;0.50;;;16.20;99.90;16.00;101267.00;;;;5031148;28;20650;-65
2022/05/25 07:40:33;;;;;;;0.10;0.10;;;16.80;99.90;17.40;101299.00;;;;5035153;28;20178;-65
2022/05/25 07:43:07;;;;;;;0.70;0.57;;;17.20;99.90;16.40;101290.00;;;;5034853;28;20193;-65
2022/05/25 07:45:35;;;;;;;1.35;1.25;;;17.10;99.90;17.90;101314.00;;;;5034650;28;20194;-65
2022/05/25 07:48:01;;;;;;;0.10;0.10;;;18.40;99.90;19.10;101335.00;;;;5035177;28;20183;-65
2022/05/25 07:50:27;;;;;;;0.90;0.57;;;19.10;99.90;17.30;101334.00;;;;5036026;28;20182;-65
2022/05/25 07:52:57;;;;;;;0.30;0.30;;;18.50;99.90;17.10;101293.00;;;;5034894;28;20491;-65
2022/05/25 07:55:23;;;;;;;0.10;0.10;;;18.20;99.90;16.50;101296.00;;;;5034647;28;20175;-66
2022/05/25 07:57:49;;;;;;;0.15;0.15;;;17.50;99.90;18.30;101290.00;;;;5035104;28;20163;-65
2022/05/25 08:00:19;;;;;;;0.82;0.82;;;18.40;99.90;17.60;101336.00;;;;5034488;28;20588;-65
2022/05/25 08:05:44;;;;;;;0.10;0.10;;;18.60;99.90;19.10;101342.00;;;;5035274;28;20201;-63
2022/05/25 08:08:21;;;;;;;0.10;0.10;;;19.60;99.90;20.80;101422.00;;;;5035910;28;20159;-64
2022/05/25 08:11:07;;;;;;;0.75;0.50;;;20.70;99.90;18.10;101365.00;;;;5034699;28;20166;-66
2022/05/25 08:13:41;;;;;;;0.52;0.52;;;19.20;99.90;17.50;101364.00;;;;5034503;28;20194;-66
2022/05/25 08:16:08;;;;;;;0.38;0.38;;;18.60;99.90;20.50;101411.00;;;;5034633;28;20679;-65
2022/05/25 08:18:34;;;;;;;1.75;0.40;;;19.90;99.90;18.10;101409.00;;;;5035522;28;20548;-63
2022/05/25 08:21:00;;;;;;;0.10;0.10;;;19.30;99.90;22.20;101418.00;;;;5034228;28;20182;-64
2022/05/25 08:23:26;;;;;;;0.10;0.10;;;21.00;99.90;22.90;101445.00;;;;5035522;28;20182;-65
2022/05/25 08:25:52;;;;;;;0.28;0.28;;;22.50;99.90;22.20;101484.00;;;;5035518;28;20186;-64
2022/05/25 08:28:18;;;;;;;0.20;0.20;;;22.50;99.90;18.80;101464.00;;;;5035318;28;20546;-65
2022/05/25 08:30:45;;;;;;;0.45;0.35;;;20.80;99.90;19.20;101464.00;;;;5035129;28;20265;-66
2022/05/25 08:33:12;;;;;;;0.22;0.22;;;19.80;99.90;19.00;101440.00;;;;5034389;28;20218;-64
2022/05/25 08:35:37;;;;;;;0.28;0.20;;;19.40;99.90;18.70;101440.00;;;;5033985;28;20218;-65
2022/05/25 08:38:05;;;;;;;0.40;0.40;;;19.00;99.90;18.20;101434.00;;;;5035239;28;20173;-64
2022/05/25 08:40:32;;;;;;;0.30;0.30;;;18.90;99.90;17.80;101378.00;;;;5035175;28;20179;-64
2022/05/25 08:43:04;;;;;;;0.15;0.15;;;18.20;99.90;18.30;101410.00;;;;5033763;28;20630;-64
2022/05/25 08:45:44;;;;;;;0.10;0.10;;;18.50;99.90;20.00;101430.00;;;;5033687;28;20175;-65
2022/05/25 08:48:15;;;;;;;1.05;1.05;;;19.20;99.90;18.40;101415.00;;;;5033995;28;20184;-64
2022/05/25 08:50:42;;;;;;;1.55;0.50;;;19.60;99.90;20.40;101445.00;;;;5034892;28;20269;-64
2022/05/25 08:53:12;;;;;;;0.45;0.20;;;19.90;99.90;18.40;101452.00;;;;5034014;28;20214;-64
2022/05/25 08:55:50;;;;;;;1.02;0.32;;;19.20;99.90;17.30;101422.00;;;;5034762;28;20217;-64
2022/05/25 08:58:19;;;;;;;0.88;0.60;;;18.30;99.90;17.50;101414.00;;;;5033561;28;20179;-65
2022/05/25 09:00:47;;;;;;;0.20;0.20;;;17.80;99.90;16.40;101403.00;;;;5034623;28;20633;-65
2022/05/25 09:03:55;;;;;;;2.70;0.43;;;17.10;99.90;18.90;101423.00;;;;5033808;28;20272;-65
2022/05/25 09:06:42;;;;;;;0.20;0.20;;;18.40;99.90;19.80;101454.00;;;;5033360;28;20189;-65
2022/05/25 09:09:29;;;;;;;0.73;0.57;;;19.30;99.90;20.00;101474.00;;;;5033478;28;20175;-65
2022/05/25 09:12:26;;;;;;;0.10;0.10;;;20.00;99.90;20.40;101481.00;;;;5034027;28;20287;-65
2022/05/25 09:15:03;;;;;;;0.25;0.25;;;20.20;99.90;19.20;101463.00;;;;5012781;28;20195;-66
2022/05/25 09:17:42;;;;;;;0.10;0.10;;;19.80;99.90;18.70;101429.00;;;;5033837;28;20181;-66
2022/05/25 09:20:13;;;;;;;0.20;0.20;;;18.80;99.90;17.90;101432.00;;;;5034211;28;20184;-66
2022/05/25 09:22:41;;;;;;;0.10;0.10;;;18.50;99.90;18.70;101450.00;;;;5033136;28;20635;-66
2022/05/25 09:25:11;;;;;;;0.20;0.20;;;18.70;99.90;17.00;101396.00;;;;5033031;28;20654;-64
2022/05/25 09:27:44;;;;;;;1.30;0.83;;;17.60;99.90;17.10;101386.00;;;;5032670;28;20181;-63
2022/05/25 09:30:12;;;;;;;0.10;0.10;;;17.30;99.90;17.40;101407.00;;;;5033054;28;20611;-64
2022/05/25 09:32:51;;;;;;;0.47;0.47;;;17.60;99.90;17.50;101378.00;;;;5032762;28;20634;-64
2022/05/25 09:35:29;;;;;;;0.37;0.37;;;17.50;99.90;17.10;101387.00;;;;5033023;28;20182;-65
2022/05/25 09:38:06;;;;;;;1.93;0.90;;;17.40;99.90;18.80;101420.00;;;;5033131;28;20209;-65
2022/05/25 09:40:52;;;;;;;2.10;0.53;;;18.20;99.90;18.30;101455.00;;;;5032647;28;20548;-64
2022/05/25 09:43:24;;;;;;;0.20;0.20;;;18.60;99.90;18.10;101440.00;;;;5033831;28;20191;-64
2022/05/25 09:45:54;;;;;;;0.23;0.23;;;18.30;99.90;18.30;101464.00;;;;5034049;28;20560;-64
2022/05/25 09:48:28;;;;;;;0.63;0.63;;;18.60;99.90;17.90;101449.00;;;;5034085;28;20183;-65
2022/05/25 09:51:04;;;;;;;0.50;0.50;;;18.20;99.90;19.30;101455.00;;;;5033732;28;20183;-65
2022/05/25 09:53:51;;;;;;;0.10;0.10;;;18.90;99.90;19.90;101476.00;;;;5032565;28;20641;-64
2022/05/25 09:56:35;;;;;;;0.30;0.30;;;19.50;99.90;19.30;101472.00;;;;5032384;28;20183;-65
2022/05/25 09:59:07;;;;;;;1.05;0.73;;;19.30;99.90;18.20;101450.00;;;;5032614;28;20272;-65
2022/05/25 10:01:42;;;;;;;0.30;0.30;;;18.70;99.90;17.50;101436.00;;;;5032804;28;20675;-64
2022/05/25 10:04:32;;;;;;;0.10;0.10;;;18.00;99.90;18.60;101470.00;;;;5033673;28;20179;-64
2022/05/25 10:06:58;;;;;;;0.10;0.10;;;18.40;99.90;19.00;101484.00;;;;5033773;28;20184;-66
2022/05/25 10:09:28;;;;;;;0.10;0.10;;;18.70;99.90;19.00;101494.00;;;;5015771;28;20192;-65
2022/05/25 10:11:56;;;;;;;0.55;0.55;;;18.80;99.90;17.60;101448.00;;;;5033278;28;20229;-65
2022/05/25 10:14:39;;;;;;;0.40;0.40;;;18.20;99.90;18.00;101483.00;;;;5033535;28;20200;-65
2022/05/25 10:17:33;;;;;;;0.10;0.10;;;18.30;99.90;19.60;101507.00;;;;5033419;28;20203;-66
2022/05/25 10:19:59;;;;;;;0.30;0.30;;;19.00;99.90;19.90;101504.00;;;;5033446;28;20193;-65
2022/05/25 10:39:30;;;;;;;1.33;0.70;;;18.90;99.90;17.80;101500.00;;;;5063612;28;20188;-66
2022/05/25 10:42:21;;;;;;;0.20;0.20;;;18.40;99.90;18.10;101471.00;;;;5050479;28;20547;-66
2022/05/25 10:45:09;;;;;;;0.20;0.20;;;18.20;99.90;18.70;101507.00;;;;5050598;28;20559;-66
2022/05/25 10:47:51;;;;;;;0.30;0.30;;;18.70;99.90;19.30;101518.00;;;;5066144;28;20199;-65
2022/05/25 10:50:30;;;;;;;0.32;0.32;;;19.30;99.90;19.80;101516.00;;;;5050767;28;20228;-66
2022/05/25 10:53:09;;;;;;;0.57;0.57;;;19.60;99.90;20.40;101484.00;;;;5065574;28;20210;-66
2022/05/25 10:56:04;;;;;;;0.20;0.20;;;20.60;99.90;20.40;101518.00;;;;5050337;28;20178;-66
2022/05/25 10:58:59;;;;;;;0.10;0.10;;;20.40;99.90;19.60;101501.00;;;;5049369;28;20270;-66
2022/05/25 11:01:35;;;;;;;12.07;0.65;;;19.80;99.90;18.80;101508.00;;;;5050253;28;20210;-66
2022/05/25 11:04:20;;;;;;;0.10;0.10;;;19.00;99.90;19.30;101503.00;;;;5050153;28;20178;-66
2022/05/25 11:07:24;;;;;;;0.20;0.20;;;19.00;99.90;20.10;101513.00;;;;5050026;28;20228;-66
2022/05/25 11:10:14;;;;;;;0.35;0.35;;;20.10;99.90;18.70;101505.00;;;;5048634;28;20201;-66
2022/05/25 11:13:11;;;;;;;0.10;0.10;;;19.10;99.90;20.00;101534.00;;;;5049923;28;20190;-66
2022/05/25 11:15:45;;;;;;;0.32;0.32;;;19.50;99.90;18.30;101481.00;;;;5049765;28;20175;-66
2022/05/25 11:18:17;;;;;;;0.33;0.33;;;18.90;99.90;18.00;101516.00;;;;5049802;28;20183;-66
2022/05/25 11:21:21;;;;;;;1.67;0.77;;;18.20;99.90;17.60;101510.00;;;;5050298;28;20248;-66
2022/05/25 11:24:45;;;;;;;0.20;0.20;;;17.90;99.90;17.50;101497.00;;;;5049153;28;20196;-67
2022/05/25 11:27:44;;;;;;;1.27;0.50;;;17.60;99.90;17.20;101497.00;;;;5049377;28;20676;-66
2022/05/25 11:31:08;;;;;;;0.20;0.20;;;17.40;99.90;17.10;101433.00;;;;5049747;28;20178;-66
2022/05/25 11:34:12;;;;;;;0.30;0.30;;;17.30;99.90;17.50;101479.00;;;;5048232;28;20548;-65
2022/05/25 11:37:10;;;;;;;0.20;0.20;;;17.50;99.90;18.70;101453.00;;;;5049444;28;20191;-66
2022/05/25 11:39:58;;;;;;;0.20;0.20;;;18.50;99.90;18.40;101491.00;;;;5049579;28;20189;-67
2022/05/25 11:42:44;;;;;;;4.43;1.17;;;18.60;99.90;18.90;101490.00;;;;5063492;28;20204;-67
2022/05/25 11:45:56;;;;;;;1.27;0.80;;;18.60;99.90;18.00;101485.00;;;;5035692;28;20204;-67
2022/05/25 11:48:58;;;;;;;1.77;1.10;;;18.50;99.90;17.80;101468.00;;;;5051279;28;20541;-68